createdAt,value
2018-01-17T00:00:57.300Z,1.15
2018-01-17T00:03:24.955Z,0.80
2018-01-17T00:05:52.556Z,0.80
2018-01-17T00:08:20.378Z,0.80
2018-01-17T00:10:47.981Z,0.60
2018-01-17T00:13:15.621Z,0.65
2018-01-17T00:15:43.294Z,0.70
2018-01-17T00:18:11.157Z,0.60
2018-01-17T00:20:38.770Z,0.65
2018-01-17T00:23:07.136Z,0.70
2018-01-17T00:25:35.840Z,0.85
2018-01-17T00:28:03.532Z,0.60
2018-01-17T00:30:31.952Z,0.60
2018-01-17T00:32:59.562Z,0.65
2018-01-17T00:35:27.421Z,0.60
2018-01-17T00:37:55.153Z,0.60
2018-01-17T00:40:23.540Z,0.60
2018-01-17T00:42:51.243Z,0.60
2018-01-17T00:45:18.974Z,0.50
2018-01-17T00:47:46.569Z,0.70
2018-01-17T00:50:14.119Z,0.60
2018-01-17T00:52:41.695Z,0.80
2018-01-17T00:55:09.241Z,0.77
2018-01-17T00:57:36.785Z,0.60
2018-01-17T01:00:04.353Z,0.80
2018-01-17T01:02:31.930Z,0.50
2018-01-17T01:04:59.485Z,0.65
2018-01-17T01:07:27.343Z,0.60
2018-01-17T01:09:54.884Z,0.70
2018-01-17T01:12:22.452Z,0.57
2018-01-17T01:14:50.005Z,0.82
2018-01-17T01:17:17.571Z,0.80
2018-01-17T01:19:45.275Z,0.60
2018-01-17T01:22:13.672Z,0.50
2018-01-17T01:24:41.217Z,0.70
2018-01-17T01:27:09.530Z,0.80
2018-01-17T01:29:37.118Z,0.50
2018-01-17T01:32:04.671Z,0.85
2018-01-17T01:34:32.213Z,0.70
2018-01-17T01:36:59.775Z,0.75
2018-01-17T01:39:27.320Z,0.80
2018-01-17T01:41:54.947Z,0.60
2018-01-17T01:44:22.559Z,0.68
2018-01-17T01:46:50.116Z,0.40
2018-01-17T01:49:17.658Z,0.57
2018-01-17T01:51:45.215Z,0.65
2018-01-17T01:54:12.767Z,0.60
2018-01-17T01:56:40.349Z,0.50
2018-01-17T01:59:07.917Z,0.50
2018-01-17T02:01:35.483Z,0.50
2018-01-17T02:04:03.083Z,0.50
2018-01-17T02:06:30.699Z,0.70
2018-01-17T02:08:59.060Z,0.50
2018-01-17T02:11:26.607Z,0.40
2018-01-17T02:13:54.173Z,0.68
2018-01-17T02:16:21.800Z,0.50
2018-01-17T02:18:49.340Z,0.47
2018-01-17T02:21:16.889Z,0.50
2018-01-17T02:23:47.297Z,0.70
2018-01-17T02:26:14.909Z,0.55
2018-01-17T02:28:42.466Z,0.70
2018-01-17T02:31:24.899Z,0.50
2018-01-17T02:33:52.454Z,0.70
2018-01-17T02:36:20.736Z,0.85
2018-01-17T02:38:48.428Z,0.82
2018-01-17T02:41:16.761Z,0.60
2018-01-17T02:43:44.339Z,0.85
2018-01-17T02:46:11.903Z,0.70
2018-01-17T02:48:39.463Z,0.80
2018-01-17T02:51:07.057Z,1.17
2018-01-17T02:53:34.643Z,0.80
2018-01-17T02:56:02.183Z,0.70
2018-01-17T02:58:29.734Z,0.77
2018-01-17T03:00:57.267Z,0.80
2018-01-17T03:03:25.890Z,0.73
2018-01-17T03:05:53.483Z,0.62
2018-01-17T03:08:21.217Z,0.90
2018-01-17T03:10:48.765Z,0.90
2018-01-17T03:13:16.316Z,1.00
2018-01-17T03:15:43.912Z,0.73
2018-01-17T03:18:11.480Z,0.80
2018-01-17T03:20:39.040Z,1.00
2018-01-17T03:23:06.583Z,0.77
2018-01-17T03:25:34.134Z,1.00
2018-01-17T03:28:01.680Z,1.05
2018-01-17T03:30:29.241Z,0.85
2018-01-17T03:32:56.782Z,0.98
2018-01-17T03:35:24.332Z,0.80
2018-01-17T03:37:52.015Z,0.70
2018-01-17T03:40:19.554Z,0.82
2018-01-17T03:42:48.534Z,0.90
2018-01-17T03:45:16.863Z,0.90
2018-01-17T03:47:44.411Z,0.80
2018-01-17T03:50:12.076Z,1.15
2018-01-17T03:52:39.630Z,1.05
2018-01-17T03:55:07.164Z,0.70
2018-01-17T04:00:08.388Z,0.75
2018-01-17T04:02:36.705Z,0.93
2018-01-17T04:05:04.252Z,0.50
2018-01-17T04:07:31.810Z,0.60
2018-01-17T04:09:59.402Z,0.62
2018-01-17T04:12:26.955Z,0.60
2018-01-17T04:14:54.515Z,0.60
2018-01-17T04:17:22.057Z,0.68
2018-01-17T04:19:49.627Z,0.55
2018-01-17T04:22:17.299Z,0.60
2018-01-17T04:24:44.842Z,0.60
2018-01-17T04:27:12.424Z,0.45
2018-01-17T04:29:39.983Z,0.50
2018-01-17T04:32:08.299Z,0.50
2018-01-17T04:34:35.903Z,0.40
2018-01-17T04:37:03.664Z,0.40
2018-01-17T04:39:31.297Z,0.43
2018-01-17T04:42:00.011Z,0.40
2018-01-17T04:44:27.558Z,0.40
2018-01-17T04:46:55.139Z,0.40
2018-01-17T04:49:22.696Z,0.40
2018-01-17T04:51:50.337Z,0.40
2018-01-17T04:54:18.108Z,0.50
2018-01-17T04:56:45.651Z,0.40
2018-01-17T04:59:13.219Z,0.40
2018-01-17T05:01:40.767Z,0.40
2018-01-17T05:04:08.404Z,0.40
2018-01-17T05:06:36.047Z,0.50
2018-01-17T05:09:04.360Z,0.40
2018-01-17T05:11:31.934Z,0.40
2018-01-17T05:13:59.495Z,0.43
2018-01-17T05:16:27.202Z,0.40
2018-01-17T05:18:54.779Z,0.60
2018-01-17T05:21:22.804Z,0.55
2018-01-17T05:23:50.368Z,0.50
2018-01-17T05:26:18.075Z,0.52
2018-01-17T05:28:45.688Z,0.50
2018-01-17T05:31:13.289Z,0.43
2018-01-17T05:33:40.843Z,0.50
2018-01-17T05:36:08.542Z,0.50
2018-01-17T05:38:40.700Z,0.55
2018-01-17T05:41:08.272Z,0.43
2018-01-17T05:43:35.944Z,0.40
2018-01-17T05:46:03.673Z,0.50
2018-01-17T05:48:31.244Z,0.40
2018-01-17T05:50:58.916Z,0.50
2018-01-17T05:53:26.748Z,0.50
2018-01-17T05:55:54.314Z,0.50
2018-01-17T05:58:21.856Z,0.55
2018-01-17T06:00:49.411Z,0.50
2018-01-17T06:03:17.296Z,0.50
2018-01-17T06:05:45.275Z,0.77
2018-01-17T06:08:12.822Z,0.98
2018-01-17T06:10:40.374Z,0.70
2018-01-17T06:13:07.969Z,0.50
2018-01-17T06:15:37.139Z,0.50
2018-01-17T06:18:06.472Z,0.50
2018-01-17T06:20:35.707Z,0.93
2018-01-17T06:23:04.899Z,0.70
2018-01-17T06:25:34.157Z,0.60
2018-01-17T06:28:03.445Z,0.70
2018-01-17T06:30:32.653Z,0.60
2018-01-17T06:33:01.956Z,1.17
2018-01-17T06:35:31.187Z,0.60
2018-01-17T06:38:00.401Z,0.60
2018-01-17T06:40:29.611Z,0.50
2018-01-17T06:42:59.344Z,0.50
2018-01-17T06:45:28.543Z,0.80
2018-01-17T06:47:57.738Z,0.50
2018-01-17T06:50:26.951Z,0.50
2018-01-17T06:52:56.145Z,0.50
2018-01-17T06:55:25.363Z,0.65
2018-01-17T06:57:54.648Z,0.60
2018-01-17T07:00:23.945Z,0.70
2018-01-17T07:02:53.233Z,0.50
2018-01-17T07:05:22.955Z,0.55
2018-01-17T07:07:52.159Z,0.50
2018-01-17T07:10:21.363Z,0.50
2018-01-17T07:12:50.728Z,0.60
2018-01-17T07:15:19.920Z,0.90
2018-01-17T07:17:49.175Z,0.50
2018-01-17T07:20:16.738Z,0.70
2018-01-17T07:22:44.303Z,0.68
2018-01-17T07:25:11.872Z,0.57
2018-01-17T07:27:39.444Z,0.65
2018-01-17T07:30:07.000Z,0.47
2018-01-17T07:32:34.648Z,0.70
2018-01-17T07:35:02.223Z,1.00
2018-01-17T07:37:29.869Z,0.70
2018-01-17T07:39:57.444Z,0.60
2018-01-17T07:42:25.205Z,0.50
2018-01-17T07:44:52.768Z,0.50
2018-01-17T07:47:20.425Z,0.70
2018-01-17T07:49:47.969Z,0.77
2018-01-17T07:52:17.458Z,2.65
2018-01-17T07:54:45.012Z,1.58
2018-01-17T07:57:12.564Z,1.23
2018-01-17T07:59:40.171Z,0.65
2018-01-17T08:02:07.721Z,0.80
2018-01-17T08:04:35.276Z,0.60
2018-01-17T08:07:02.895Z,1.00
2018-01-17T08:09:30.441Z,2.05
2018-01-17T08:11:58.070Z,0.52
2018-01-17T08:14:25.700Z,0.60
2018-01-17T08:16:53.248Z,1.27
2018-01-17T08:19:20.901Z,0.60
2018-01-17T08:21:48.447Z,0.50
2018-01-17T08:24:16.540Z,0.60
2018-01-17T08:26:44.195Z,0.60
2018-01-17T08:29:11.759Z,0.52
2018-01-17T08:31:39.398Z,0.60
2018-01-17T08:34:06.968Z,0.70
2018-01-17T08:36:34.522Z,0.60
2018-01-17T08:39:02.080Z,0.70
2018-01-17T08:41:29.687Z,0.60
2018-01-17T08:43:57.236Z,0.90
2018-01-17T08:46:24.808Z,0.88
2018-01-17T08:48:52.549Z,0.52
2018-01-17T08:51:20.095Z,0.65
2018-01-17T08:53:47.697Z,0.75
2018-01-17T08:56:15.229Z,0.62
2018-01-17T08:58:42.991Z,1.00
2018-01-17T09:01:10.548Z,0.88
2018-01-17T09:03:38.090Z,0.90
2018-01-17T09:06:05.663Z,0.62
2018-01-17T09:08:33.221Z,0.60
2018-01-17T09:11:00.971Z,0.93
2018-01-17T09:13:28.542Z,1.08
2018-01-17T09:15:56.119Z,0.65
2018-01-17T09:18:23.763Z,0.60
2018-01-17T09:20:51.312Z,0.75
2018-01-17T09:23:18.973Z,0.77
2018-01-17T09:25:46.633Z,0.60
2018-01-17T09:28:14.207Z,1.02
2018-01-17T09:30:41.773Z,0.82
2018-01-17T09:33:09.351Z,1.05
2018-01-17T09:35:37.940Z,1.37
2018-01-17T09:38:05.493Z,0.68
2018-01-17T09:40:33.820Z,1.10
2018-01-17T09:43:02.635Z,0.70
2018-01-17T09:45:30.238Z,0.70
2018-01-17T09:47:57.860Z,0.60
2018-01-17T09:50:26.208Z,0.75
2018-01-17T09:52:53.775Z,0.80
2018-01-17T09:55:21.372Z,0.50
2018-01-17T09:57:48.987Z,0.40
2018-01-17T10:00:16.549Z,0.60
2018-01-17T10:02:44.096Z,0.50
2018-01-17T10:05:11.758Z,0.40
2018-01-17T10:07:39.328Z,0.40
2018-01-17T10:10:06.876Z,0.50
2018-01-17T10:12:34.423Z,0.47
2018-01-17T10:15:01.988Z,0.50
2018-01-17T10:17:29.567Z,0.50
2018-01-17T10:19:57.115Z,0.40
2018-01-17T10:22:24.747Z,0.60
2018-01-17T10:24:52.336Z,0.50
2018-01-17T10:27:19.882Z,0.60
2018-01-17T10:29:47.443Z,0.60
2018-01-17T10:32:14.984Z,0.60
2018-01-17T10:34:42.530Z,0.60
2018-01-17T10:37:10.086Z,0.62
2018-01-17T10:39:37.628Z,0.60
2018-01-17T10:42:05.188Z,0.50
2018-01-17T10:44:32.765Z,0.68
2018-01-17T10:47:01.344Z,0.98
2018-01-17T10:49:28.884Z,0.50
2018-01-17T10:51:56.459Z,0.70
2018-01-17T10:54:24.041Z,0.50
2018-01-17T10:56:51.590Z,0.68
2018-01-17T10:59:19.231Z,0.60
2018-01-17T11:01:46.827Z,0.70
2018-01-17T11:04:14.461Z,0.80
2018-01-17T11:06:42.038Z,0.80
2018-01-17T11:09:09.600Z,0.60
2018-01-17T11:11:37.167Z,0.50
2018-01-17T11:14:04.711Z,0.68
2018-01-17T11:16:32.332Z,0.65
2018-01-17T11:18:59.926Z,0.65
2018-01-17T11:21:27.474Z,0.70
2018-01-17T11:23:55.197Z,0.60
2018-01-17T11:26:23.517Z,0.77
2018-01-17T11:28:51.085Z,0.70
2018-01-17T11:31:18.747Z,0.68
2018-01-17T11:33:46.300Z,0.60
2018-01-17T11:36:13.997Z,0.88
2018-01-17T11:38:41.557Z,0.75
2018-01-17T11:41:10.247Z,0.80
2018-01-17T11:43:38.611Z,0.70
2018-01-17T11:46:06.153Z,0.70
2018-01-17T11:48:33.900Z,0.73
2018-01-17T11:51:01.737Z,0.80
2018-01-17T11:53:29.332Z,0.70
2018-01-17T11:55:56.938Z,0.50
2018-01-17T11:58:25.278Z,0.70
2018-01-17T12:00:52.820Z,0.80
2018-01-17T12:03:20.408Z,0.90
2018-01-17T12:05:48.045Z,0.75
2018-01-17T12:08:15.667Z,1.00
2018-01-17T12:10:44.084Z,0.75
2018-01-17T12:13:11.644Z,0.90
2018-01-17T12:15:39.196Z,1.00
2018-01-17T12:18:06.777Z,0.77
2018-01-17T12:20:35.513Z,1.00
2018-01-17T12:23:03.107Z,0.90
2018-01-17T12:25:31.140Z,1.17
2018-01-17T12:27:58.805Z,0.90
2018-01-17T12:30:26.414Z,1.10
2018-01-17T12:32:54.251Z,1.05
2018-01-17T12:35:21.973Z,1.15
2018-01-17T12:37:49.552Z,1.20
2018-01-17T12:40:17.633Z,1.00
2018-01-17T12:42:45.291Z,1.17
2018-01-17T12:45:12.836Z,0.80
2018-01-17T12:47:40.396Z,1.70
2018-01-17T12:50:08.015Z,1.10
2018-01-17T12:52:36.353Z,0.90
2018-01-17T12:55:06.296Z,1.00
2018-01-17T12:57:34.110Z,0.80
2018-01-17T13:00:02.329Z,1.75
2018-01-17T13:02:30.987Z,1.80
2018-01-17T13:05:01.369Z,1.00
2018-01-17T13:07:29.087Z,1.55
2018-01-17T13:09:56.919Z,1.20
2018-01-17T13:12:24.564Z,1.27
2018-01-17T13:14:54.632Z,1.50
2018-01-17T13:17:22.264Z,0.98
2018-01-17T13:19:52.196Z,1.12
2018-01-17T13:22:19.966Z,1.73
2018-01-17T13:24:48.410Z,1.40
2018-01-17T13:27:15.979Z,1.48
2018-01-17T13:29:43.540Z,1.05
2018-01-17T13:32:11.204Z,1.65
2018-01-17T13:34:39.576Z,1.35
2018-01-17T13:37:07.142Z,2.28
2018-01-17T13:39:34.927Z,1.05
2018-01-17T13:42:02.489Z,6.00
2018-01-17T13:44:31.344Z,6.03
2018-01-17T13:46:58.904Z,1.50
2018-01-17T13:49:26.536Z,1.85
2018-01-17T13:51:54.452Z,1.40
2018-01-17T13:54:23.366Z,1.10
2018-01-17T13:56:51.394Z,1.52
2018-01-17T13:59:19.355Z,1.50
2018-01-17T14:01:46.929Z,1.77
2018-01-17T14:04:14.972Z,1.60
2018-01-17T14:06:42.598Z,1.62
2018-01-17T14:09:10.265Z,1.55
2018-01-17T14:11:38.023Z,1.90
2018-01-17T14:14:06.343Z,3.00
2018-01-17T14:16:33.920Z,2.12
2018-01-17T14:19:01.569Z,1.48
2018-01-17T14:21:29.196Z,1.20
2018-01-17T14:23:57.819Z,1.20
2018-01-17T14:26:26.503Z,2.05
2018-01-17T14:28:54.570Z,1.27
2018-01-17T14:31:23.368Z,1.70
2018-01-17T14:33:50.990Z,1.60
2018-01-17T14:36:18.528Z,1.75
2018-01-17T14:38:46.152Z,1.30
2018-01-17T14:41:13.804Z,1.30
2018-01-17T14:43:41.351Z,1.40
2018-01-17T14:46:08.984Z,1.15
2018-01-17T14:48:37.407Z,1.15
2018-01-17T14:51:06.059Z,1.70
2018-01-17T14:53:33.622Z,1.55
2018-01-17T14:56:01.188Z,1.02
2018-01-17T14:58:28.831Z,2.80
2018-01-17T15:00:56.672Z,1.35
2018-01-17T15:03:24.302Z,1.30
2018-01-17T15:05:52.627Z,1.30
2018-01-17T15:08:20.182Z,1.15
2018-01-17T15:10:47.781Z,1.10
2018-01-17T15:13:15.330Z,1.50
2018-01-17T15:15:43.870Z,1.08
2018-01-17T15:18:11.427Z,2.25
2018-01-17T15:20:39.148Z,1.62
2018-01-17T15:23:07.604Z,1.40
2018-01-17T15:25:35.154Z,1.45
2018-01-17T15:28:02.719Z,1.42
2018-01-17T15:30:30.281Z,1.50
2018-01-17T15:32:57.840Z,1.65
2018-01-17T15:35:25.391Z,3.12
2018-01-17T15:37:53.011Z,2.17
2018-01-17T15:40:20.618Z,1.37
2018-01-17T15:42:48.193Z,1.87
2018-01-17T15:45:15.756Z,1.65
2018-01-17T15:47:43.759Z,1.48
2018-01-17T15:50:11.344Z,2.40
2018-01-17T15:52:38.889Z,1.85
2018-01-17T15:55:06.553Z,1.55
2018-01-17T15:57:34.646Z,1.73
2018-01-17T16:00:02.244Z,1.87
2018-01-17T16:02:30.576Z,2.00
2018-01-17T16:04:58.139Z,1.60
2018-01-17T16:07:25.701Z,1.40
2018-01-17T16:09:54.052Z,1.42
2018-01-17T16:12:21.627Z,1.40
2018-01-17T16:14:49.252Z,1.62
2018-01-17T16:17:16.871Z,1.73
2018-01-17T16:19:44.422Z,1.40
2018-01-17T16:22:12.075Z,1.40
2018-01-17T16:24:39.682Z,2.20
2018-01-17T16:27:07.281Z,2.33
2018-01-17T16:29:34.848Z,2.75
2018-01-17T16:32:02.402Z,1.60
2018-01-17T16:34:30.014Z,1.83
2018-01-17T16:36:57.575Z,2.67
2018-01-17T16:39:25.888Z,2.90
2018-01-17T16:41:53.457Z,2.35
2018-01-17T16:44:21.090Z,2.60
2018-01-17T16:46:48.736Z,3.15
2018-01-17T16:49:16.843Z,3.20
2018-01-17T16:51:44.395Z,4.12
2018-01-17T16:54:12.102Z,2.75
2018-01-17T16:56:40.477Z,2.95
2018-01-17T16:59:08.833Z,2.70
2018-01-17T17:01:36.504Z,3.03
2018-01-17T17:04:06.049Z,2.40
2018-01-17T17:06:35.376Z,3.50
2018-01-17T17:09:03.763Z,2.47
2018-01-17T17:11:33.449Z,2.33
2018-01-17T17:14:01.600Z,2.50
2018-01-17T17:16:29.786Z,1.77
2018-01-17T17:18:59.380Z,2.67
2018-01-17T17:21:27.827Z,3.37
2018-01-17T17:23:56.165Z,3.08
2018-01-17T17:26:23.749Z,2.08
2018-01-17T17:28:51.458Z,2.92
2018-01-17T17:31:19.023Z,5.60
2018-01-17T17:33:46.782Z,4.93
2018-01-17T17:36:14.342Z,3.78
2018-01-17T17:38:42.016Z,4.75
2018-01-17T17:41:09.654Z,3.05
2018-01-17T17:43:37.264Z,3.47
2018-01-17T17:46:04.928Z,3.53
2018-01-17T17:48:32.476Z,3.67
2018-01-17T17:51:00.115Z,3.10
2018-01-17T17:53:27.668Z,4.90
2018-01-17T17:55:55.241Z,3.15
2018-01-17T17:58:22.863Z,3.00
2018-01-17T18:00:50.586Z,2.97
2018-01-17T18:03:18.306Z,3.00
2018-01-17T18:05:45.859Z,3.72
2018-01-17T18:08:13.554Z,2.85
2018-01-17T18:10:41.464Z,3.35
2018-01-17T18:13:09.041Z,6.50
2018-01-17T18:15:36.704Z,2.92
2018-01-17T18:18:04.272Z,3.10
2018-01-17T18:20:31.917Z,3.58
2018-01-17T18:22:59.473Z,3.35
2018-01-17T18:25:27.142Z,3.62
2018-01-17T18:27:54.734Z,3.42
2018-01-17T18:30:22.291Z,2.90
2018-01-17T18:32:49.878Z,2.40
2018-01-17T18:35:18.215Z,2.35
2018-01-17T18:37:46.008Z,2.50
2018-01-17T18:40:14.282Z,3.17
2018-01-17T18:42:41.911Z,2.42
2018-01-17T18:45:09.775Z,3.40
2018-01-17T18:47:37.352Z,3.58
2018-01-17T18:50:05.009Z,4.62
2018-01-17T18:52:32.699Z,1.70
2018-01-17T18:55:01.054Z,3.67
2018-01-17T18:57:31.250Z,2.85
2018-01-17T18:59:58.819Z,2.45
2018-01-17T19:02:26.386Z,3.12
2018-01-17T19:04:53.939Z,2.22
2018-01-17T19:07:21.745Z,2.53
2018-01-17T19:09:49.521Z,2.70
2018-01-17T19:12:17.171Z,2.22
2018-01-17T19:14:44.724Z,2.55
2018-01-17T19:17:13.056Z,2.60
2018-01-17T19:19:40.611Z,2.30
2018-01-17T19:22:08.196Z,2.78
2018-01-17T19:24:36.551Z,3.17
2018-01-17T19:27:04.355Z,2.33
2018-01-17T19:29:32.675Z,2.70
2018-01-17T19:32:00.346Z,2.10
2018-01-17T19:34:28.224Z,1.80
2018-01-17T19:36:56.007Z,2.35
2018-01-17T19:39:23.823Z,2.45
2018-01-17T19:41:51.695Z,3.25
2018-01-17T19:44:19.258Z,1.85
2018-01-17T19:46:47.036Z,2.45
2018-01-17T19:49:14.808Z,2.45
2018-01-17T19:51:42.378Z,2.45
2018-01-17T19:54:10.088Z,1.83
2018-01-17T19:56:37.654Z,2.10
2018-01-17T19:59:05.229Z,2.50
2018-01-17T20:01:32.950Z,2.50
2018-01-17T20:04:00.535Z,3.87
2018-01-17T20:06:28.097Z,1.55
2018-01-17T20:08:55.758Z,2.25
2018-01-17T20:11:23.328Z,1.60
2018-01-17T20:13:50.920Z,2.00
2018-01-17T20:16:25.807Z,2.90
2018-01-17T20:18:58.812Z,2.33
2018-01-17T20:21:26.560Z,2.40
2018-01-17T20:23:54.149Z,2.17
2018-01-17T20:26:21.760Z,2.75
2018-01-17T20:28:49.317Z,2.40
2018-01-17T20:31:16.973Z,2.50
2018-01-17T20:33:44.625Z,1.77
2018-01-17T20:36:12.947Z,2.80
2018-01-17T20:38:40.544Z,2.00
2018-01-17T20:41:08.864Z,2.58
2018-01-17T20:43:37.249Z,2.30
2018-01-17T20:46:04.847Z,2.83
2018-01-17T20:48:33.189Z,2.72
2018-01-17T20:51:01.518Z,2.83
2018-01-17T20:53:29.127Z,2.00
2018-01-17T20:55:56.789Z,1.75
2018-01-17T20:58:24.402Z,2.10
2018-01-17T21:00:51.988Z,2.40
2018-01-17T21:03:19.541Z,2.70
2018-01-17T21:05:47.388Z,2.30
2018-01-17T21:08:14.991Z,2.05
2018-01-17T21:10:42.573Z,3.33
2018-01-17T21:13:11.506Z,1.87
2018-01-17T21:15:39.207Z,1.98
2018-01-17T21:18:06.930Z,1.87
2018-01-17T21:20:34.494Z,2.03
2018-01-17T21:23:03.197Z,2.40
2018-01-17T21:25:30.935Z,2.20
2018-01-17T21:27:58.541Z,1.52
2018-01-17T21:30:26.121Z,2.25
2018-01-17T21:32:54.459Z,2.00
2018-01-17T21:35:22.765Z,1.85
2018-01-17T21:37:50.792Z,1.50
2018-01-17T21:40:18.346Z,1.70
2018-01-17T21:42:53.053Z,1.90
2018-01-17T21:45:28.242Z,1.83
2018-01-17T21:47:55.912Z,1.87
2018-01-17T21:50:24.333Z,1.55
2018-01-17T21:52:53.121Z,2.00
2018-01-17T21:55:23.638Z,2.03
2018-01-17T21:57:52.052Z,2.30
2018-01-17T22:00:20.994Z,1.33
2018-01-17T22:02:49.959Z,1.42
2018-01-17T22:05:18.964Z,1.67
2018-01-17T22:07:46.580Z,1.65
2018-01-17T22:10:15.244Z,1.50
2018-01-17T22:12:42.961Z,1.60
2018-01-17T22:15:11.996Z,1.80
2018-01-17T22:17:41.037Z,1.37
2018-01-17T22:20:09.465Z,1.95
2018-01-17T22:22:37.944Z,1.20
2018-01-17T22:25:05.568Z,1.27
2018-01-17T22:27:33.876Z,1.60
2018-01-17T22:32:54.012Z,0.80
2018-01-17T22:35:22.020Z,1.25
2018-01-17T22:37:50.891Z,1.05
2018-01-17T22:40:18.603Z,1.15
2018-01-17T22:42:46.192Z,0.95
2018-01-17T22:45:13.750Z,1.35
2018-01-17T22:47:41.299Z,1.35
2018-01-17T22:50:08.857Z,1.10
2018-01-17T22:52:36.419Z,1.30
2018-01-17T22:55:04.041Z,1.45
2018-01-17T22:57:31.601Z,1.62
2018-01-17T22:59:59.155Z,1.70
2018-01-17T23:02:26.837Z,1.33
2018-01-17T23:04:54.378Z,1.40
2018-01-17T23:07:22.078Z,1.52
2018-01-17T23:09:49.636Z,1.30
2018-01-17T23:12:17.221Z,1.75
2018-01-17T23:14:45.547Z,1.40
2018-01-17T23:17:13.124Z,2.20
2018-01-17T23:19:40.695Z,1.90
2018-01-17T23:22:08.247Z,2.05
2018-01-17T23:24:35.866Z,1.62
2018-01-17T23:27:03.459Z,2.17
2018-01-17T23:29:31.018Z,1.85
2018-01-17T23:31:58.567Z,1.55
2018-01-17T23:34:26.330Z,2.12
2018-01-17T23:36:53.879Z,2.10
2018-01-17T23:39:21.638Z,1.80
2018-01-17T23:41:49.487Z,1.55
2018-01-17T23:44:17.686Z,1.52
2018-01-17T23:49:38.318Z,1.60
2018-01-17T23:52:20.079Z,2.00
2018-01-17T23:54:56.036Z,1.87
2018-01-17T23:57:34.442Z,2.25
